sensor_id;sensor_type;location;lat;lon;timestamp;P1;durP1;ratioP1;P2;durP2;ratioP2
22088;SDS011;11211;52.728;9.230;2022-11-15T00:00:45;4.63;;;2.30;;
22088;SDS011;11211;52.728;9.230;2022-11-15T00:03:13;9.68;;;3.17;;
22088;SDS011;11211;52.728;9.230;2022-11-15T00:05:41;4.03;;;2.40;;
22088;SDS011;11211;52.728;9.230;2022-11-15T00:08:08;5.38;;;3.45;;
22088;SDS011;11211;52.728;9.230;2022-11-15T00:10:35;2.45;;;1.77;;
22088;SDS011;11211;52.728;9.230;2022-11-15T00:13:04;1.98;;;1.67;;
22088;SDS011;11211;52.728;9.230;2022-11-15T00:15:33;4.18;;;2.55;;
22088;SDS011;11211;52.728;9.230;2022-11-15T00:18:00;3.15;;;1.77;;
22088;SDS011;11211;52.728;9.230;2022-11-15T00:20:27;6.40;;;2.95;;
22088;SDS011;11211;52.728;9.230;2022-11-15T00:22:56;3.25;;;2.10;;
22088;SDS011;11211;52.728;9.230;2022-11-15T00:25:22;3.47;;;2.10;;
22088;SDS011;11211;52.728;9.230;2022-11-15T00:27:49;3.42;;;2.40;;
22088;SDS011;11211;52.728;9.230;2022-11-15T00:30:16;5.78;;;2.50;;
22088;SDS011;11211;52.728;9.230;2022-11-15T00:32:43;3.03;;;1.83;;
22088;SDS011;11211;52.728;9.230;2022-11-15T00:35:10;5.18;;;1.98;;
22088;SDS011;11211;52.728;9.230;2022-11-15T00:37:36;3.22;;;2.20;;
22088;SDS011;11211;52.728;9.230;2022-11-15T00:40:05;6.45;;;2.45;;
22088;SDS011;11211;52.728;9.230;2022-11-15T00:42:33;5.72;;;3.53;;
22088;SDS011;11211;52.728;9.230;2022-11-15T00:44:59;3.80;;;2.58;;
22088;SDS011;11211;52.728;9.230;2022-11-15T00:47:26;1.48;;;1.20;;
22088;SDS011;11211;52.728;9.230;2022-11-15T00:49:53;8.15;;;2.30;;
22088;SDS011;11211;52.728;9.230;2022-11-15T00:52:20;1.17;;;1.08;;
22088;SDS011;11211;52.728;9.230;2022-11-15T00:54:46;8.68;;;3.42;;
22088;SDS011;11211;52.728;9.230;2022-11-15T00:57:14;3.55;;;2.65;;
22088;SDS011;11211;52.728;9.230;2022-11-15T00:59:41;3.90;;;2.70;;
22088;SDS011;11211;52.728;9.230;2022-11-15T01:02:08;2.58;;;2.38;;
22088;SDS011;11211;52.728;9.230;2022-11-15T01:04:34;8.23;;;2.63;;
22088;SDS011;11211;52.728;9.230;2022-11-15T01:07:01;2.97;;;1.98;;
22088;SDS011;11211;52.728;9.230;2022-11-15T01:09:28;6.05;;;2.08;;
22088;SDS011;11211;52.728;9.230;2022-11-15T01:11:55;2.92;;;1.95;;
22088;SDS011;11211;52.728;9.230;2022-11-15T01:14:23;2.58;;;2.13;;
22088;SDS011;11211;52.728;9.230;2022-11-15T01:16:49;4.10;;;2.47;;
22088;SDS011;11211;52.728;9.230;2022-11-15T01:19:16;2.17;;;1.83;;
22088;SDS011;11211;52.728;9.230;2022-11-15T01:21:43;3.13;;;2.15;;
22088;SDS011;11211;52.728;9.230;2022-11-15T01:24:10;9.30;;;2.70;;
22088;SDS011;11211;52.728;9.230;2022-11-15T01:26:38;8.52;;;2.88;;
22088;SDS011;11211;52.728;9.230;2022-11-15T01:29:05;1.80;;;1.65;;
22088;SDS011;11211;52.728;9.230;2022-11-15T01:31:33;4.22;;;2.42;;
22088;SDS011;11211;52.728;9.230;2022-11-15T01:34:00;4.72;;;2.22;;
22088;SDS011;11211;52.728;9.230;2022-11-15T01:36:26;5.25;;;1.08;;
22088;SDS011;11211;52.728;9.230;2022-11-15T01:38:53;2.95;;;1.73;;
22088;SDS011;11211;52.728;9.230;2022-11-15T01:41:22;4.75;;;2.17;;
22088;SDS011;11211;52.728;9.230;2022-11-15T01:43:51;4.38;;;1.42;;
22088;SDS011;11211;52.728;9.230;2022-11-15T01:46:22;6.88;;;2.10;;
22088;SDS011;11211;52.728;9.230;2022-11-15T01:48:57;3.50;;;2.47;;
22088;SDS011;11211;52.728;9.230;2022-11-15T01:51:28;5.15;;;1.45;;
22088;SDS011;11211;52.728;9.230;2022-11-15T01:53:57;2.30;;;1.67;;
22088;SDS011;11211;52.728;9.230;2022-11-15T01:56:28;8.20;;;1.75;;
22088;SDS011;11211;52.728;9.230;2022-11-15T01:58:58;2.05;;;1.23;;
22088;SDS011;11211;52.728;9.230;2022-11-15T02:01:26;14.60;;;2.88;;
22088;SDS011;11211;52.728;9.230;2022-11-15T02:03:56;4.75;;;2.13;;
22088;SDS011;11211;52.728;9.230;2022-11-15T02:06:27;3.75;;;2.58;;
22088;SDS011;11211;52.728;9.230;2022-11-15T02:08:54;6.03;;;2.55;;
22088;SDS011;11211;52.728;9.230;2022-11-15T02:11:22;2.05;;;1.88;;
22088;SDS011;11211;52.728;9.230;2022-11-15T02:13:49;5.88;;;2.22;;
22088;SDS011;11211;52.728;9.230;2022-11-15T02:16:18;3.97;;;1.48;;
22088;SDS011;11211;52.728;9.230;2022-11-15T02:18:55;5.40;;;1.42;;
22088;SDS011;11211;52.728;9.230;2022-11-15T02:21:30;6.35;;;3.00;;
22088;SDS011;11211;52.728;9.230;2022-11-15T02:33:00;1.67;;;1.58;;
22088;SDS011;11211;52.728;9.230;2022-11-15T02:35:34;1.52;;;1.05;;
22088;SDS011;11211;52.728;9.230;2022-11-15T02:38:08;3.92;;;2.78;;
22088;SDS011;11211;52.728;9.230;2022-11-15T02:40:44;4.30;;;2.10;;
22088;SDS011;11211;52.728;9.230;2022-11-15T02:43:17;2.33;;;1.80;;
22088;SDS011;11211;52.728;9.230;2022-11-15T02:46:09;3.58;;;2.05;;
22088;SDS011;11211;52.728;9.230;2022-11-15T02:48:42;1.90;;;1.58;;
22088;SDS011;11211;52.728;9.230;2022-11-15T02:51:11;8.57;;;1.85;;
22088;SDS011;11211;52.728;9.230;2022-11-15T02:53:38;2.20;;;1.73;;
22088;SDS011;11211;52.728;9.230;2022-11-15T02:56:07;5.18;;;1.92;;
22088;SDS011;11211;52.728;9.230;2022-11-15T02:58:42;3.60;;;1.50;;
22088;SDS011;11211;52.728;9.230;2022-11-15T03:01:26;2.85;;;1.88;;
22088;SDS011;11211;52.728;9.230;2022-11-15T03:04:06;2.50;;;2.30;;
22088;SDS011;11211;52.728;9.230;2022-11-15T03:06:43;3.15;;;1.60;;
22088;SDS011;11211;52.728;9.230;2022-11-15T03:09:17;5.90;;;3.00;;
22088;SDS011;11211;52.728;9.230;2022-11-15T03:11:55;1.05;;;0.85;;
22088;SDS011;11211;52.728;9.230;2022-11-15T03:14:26;3.22;;;1.95;;
22088;SDS011;11211;52.728;9.230;2022-11-15T03:16:58;2.53;;;1.65;;
22088;SDS011;11211;52.728;9.230;2022-11-15T03:19:34;1.15;;;1.02;;
22088;SDS011;11211;52.728;9.230;2022-11-15T03:22:07;2.83;;;1.45;;
22088;SDS011;11211;52.728;9.230;2022-11-15T03:24:37;2.53;;;1.67;;
22088;SDS011;11211;52.728;9.230;2022-11-15T03:27:05;3.97;;;1.90;;
22088;SDS011;11211;52.728;9.230;2022-11-15T03:29:36;5.75;;;2.92;;
22088;SDS011;11211;52.728;9.230;2022-11-15T03:32:08;3.53;;;1.55;;
22088;SDS011;11211;52.728;9.230;2022-11-15T03:34:40;3.65;;;2.13;;
22088;SDS011;11211;52.728;9.230;2022-11-15T03:37:11;2.50;;;1.80;;
22088;SDS011;11211;52.728;9.230;2022-11-15T03:39:40;2.63;;;1.67;;
22088;SDS011;11211;52.728;9.230;2022-11-15T03:42:11;3.75;;;1.17;;
22088;SDS011;11211;52.728;9.230;2022-11-15T03:44:47;2.15;;;1.52;;
22088;SDS011;11211;52.728;9.230;2022-11-15T03:47:21;5.13;;;2.28;;
22088;SDS011;11211;52.728;9.230;2022-11-15T03:49:53;1.08;;;0.98;;
22088;SDS011;11211;52.728;9.230;2022-11-15T03:52:24;5.13;;;1.10;;
22088;SDS011;11211;52.728;9.230;2022-11-15T03:54:52;2.85;;;1.33;;
22088;SDS011;11211;52.728;9.230;2022-11-15T03:57:20;2.05;;;1.35;;
22088;SDS011;11211;52.728;9.230;2022-11-15T03:59:48;4.43;;;1.58;;
22088;SDS011;11211;52.728;9.230;2022-11-15T04:02:14;0.90;;;0.75;;
22088;SDS011;11211;52.728;9.230;2022-11-15T04:04:42;3.80;;;0.90;;
22088;SDS011;11211;52.728;9.230;2022-11-15T04:07:09;2.80;;;1.73;;
22088;SDS011;11211;52.728;9.230;2022-11-15T04:09:36;1.10;;;0.88;;
22088;SDS011;11211;52.728;9.230;2022-11-15T04:12:23;4.85;;;1.25;;
22088;SDS011;11211;52.728;9.230;2022-11-15T04:14:56;1.42;;;1.20;;
22088;SDS011;11211;52.728;9.230;2022-11-15T04:17:33;2.03;;;0.85;;
22088;SDS011;11211;52.728;9.230;2022-11-15T04:20:03;4.35;;;1.30;;
22088;SDS011;11211;52.728;9.230;2022-11-15T04:22:48;2.33;;;1.35;;
22088;SDS011;11211;52.728;9.230;2022-11-15T04:25:35;3.33;;;1.67;;
22088;SDS011;11211;52.728;9.230;2022-11-15T04:28:01;0.63;;;0.50;;
22088;SDS011;11211;52.728;9.230;2022-11-15T04:30:28;5.47;;;1.90;;
22088;SDS011;11211;52.728;9.230;2022-11-15T04:32:55;3.90;;;1.60;;
22088;SDS011;11211;52.728;9.230;2022-11-15T04:35:23;1.33;;;1.02;;
22088;SDS011;11211;52.728;9.230;2022-11-15T04:37:50;1.38;;;1.02;;
22088;SDS011;11211;52.728;9.230;2022-11-15T04:40:15;6.45;;;1.25;;
22088;SDS011;11211;52.728;9.230;2022-11-15T04:42:42;6.32;;;2.92;;
22088;SDS011;11211;52.728;9.230;2022-11-15T04:45:09;1.45;;;1.08;;
22088;SDS011;11211;52.728;9.230;2022-11-15T04:47:36;4.20;;;1.73;;
22088;SDS011;11211;52.728;9.230;2022-11-15T04:50:03;3.13;;;1.42;;
22088;SDS011;11211;52.728;9.230;2022-11-15T04:52:32;5.53;;;1.45;;
22088;SDS011;11211;52.728;9.230;2022-11-15T04:54:59;3.63;;;1.10;;
22088;SDS011;11211;52.728;9.230;2022-11-15T04:57:25;1.42;;;0.85;;
22088;SDS011;11211;52.728;9.230;2022-11-15T04:59:52;5.00;;;1.30;;
22088;SDS011;11211;52.728;9.230;2022-11-15T05:02:19;2.88;;;1.80;;
22088;SDS011;11211;52.728;9.230;2022-11-15T05:04:45;3.60;;;1.38;;
22088;SDS011;11211;52.728;9.230;2022-11-15T05:07:11;1.67;;;1.33;;
22088;SDS011;11211;52.728;9.230;2022-11-15T05:09:39;0.57;;;0.47;;
22088;SDS011;11211;52.728;9.230;2022-11-15T05:12:06;3.33;;;2.13;;
22088;SDS011;11211;52.728;9.230;2022-11-15T05:14:32;1.52;;;1.25;;
22088;SDS011;11211;52.728;9.230;2022-11-15T05:16:59;5.65;;;1.58;;
22088;SDS011;11211;52.728;9.230;2022-11-15T05:19:26;2.70;;;1.35;;
22088;SDS011;11211;52.728;9.230;2022-11-15T05:21:53;0.88;;;0.73;;
22088;SDS011;11211;52.728;9.230;2022-11-15T05:24:19;1.30;;;1.20;;
22088;SDS011;11211;52.728;9.230;2022-11-15T05:26:47;2.50;;;1.02;;
22088;SDS011;11211;52.728;9.230;2022-11-15T05:29:14;3.70;;;1.42;;
22088;SDS011;11211;52.728;9.230;2022-11-15T05:31:41;1.48;;;0.88;;
22088;SDS011;11211;52.728;9.230;2022-11-15T05:34:08;3.40;;;1.35;;
22088;SDS011;11211;52.728;9.230;2022-11-15T05:36:36;1.33;;;1.02;;
22088;SDS011;11211;52.728;9.230;2022-11-15T05:39:04;2.10;;;0.85;;
22088;SDS011;11211;52.728;9.230;2022-11-15T05:41:33;0.82;;;0.68;;
22088;SDS011;11211;52.728;9.230;2022-11-15T05:44:04;0.90;;;0.77;;
22088;SDS011;11211;52.728;9.230;2022-11-15T05:46:34;5.75;;;2.10;;
22088;SDS011;11211;52.728;9.230;2022-11-15T05:49:01;2.58;;;1.48;;
22088;SDS011;11211;52.728;9.230;2022-11-15T05:51:30;3.47;;;1.55;;
22088;SDS011;11211;52.728;9.230;2022-11-15T05:53:57;0.30;;;0.30;;
22088;SDS011;11211;52.728;9.230;2022-11-15T05:56:24;2.53;;;1.67;;
22088;SDS011;11211;52.728;9.230;2022-11-15T05:58:52;1.60;;;1.50;;
22088;SDS011;11211;52.728;9.230;2022-11-15T06:01:22;0.47;;;0.47;;
22088;SDS011;11211;52.728;9.230;2022-11-15T06:03:50;5.78;;;1.65;;
22088;SDS011;11211;52.728;9.230;2022-11-15T06:06:17;2.22;;;1.40;;
22088;SDS011;11211;52.728;9.230;2022-11-15T06:08:44;6.80;;;2.10;;
22088;SDS011;11211;52.728;9.230;2022-11-15T06:11:12;2.45;;;1.42;;
22088;SDS011;11211;52.728;9.230;2022-11-15T06:13:39;2.60;;;1.27;;
22088;SDS011;11211;52.728;9.230;2022-11-15T06:16:06;5.85;;;1.92;;
22088;SDS011;11211;52.728;9.230;2022-11-15T06:18:35;1.95;;;1.05;;
22088;SDS011;11211;52.728;9.230;2022-11-15T06:21:02;1.42;;;1.13;;
22088;SDS011;11211;52.728;9.230;2022-11-15T06:23:31;0.88;;;0.60;;
22088;SDS011;11211;52.728;9.230;2022-11-15T06:25:58;3.00;;;1.35;;
22088;SDS011;11211;52.728;9.230;2022-11-15T06:28:27;3.92;;;1.08;;
22088;SDS011;11211;52.728;9.230;2022-11-15T06:30:55;2.42;;;0.88;;
22088;SDS011;11211;52.728;9.230;2022-11-15T06:33:22;1.25;;;0.93;;
22088;SDS011;11211;52.728;9.230;2022-11-15T06:35:50;0.60;;;0.55;;
22088;SDS011;11211;52.728;9.230;2022-11-15T06:38:17;1.25;;;1.13;;
22088;SDS011;11211;52.728;9.230;2022-11-15T06:40:43;0.32;;;0.30;;
22088;SDS011;11211;52.728;9.230;2022-11-15T06:43:10;1.38;;;1.27;;
22088;SDS011;11211;52.728;9.230;2022-11-15T06:45:37;2.42;;;1.33;;
22088;SDS011;11211;52.728;9.230;2022-11-15T06:48:04;0.20;;;0.20;;
22088;SDS011;11211;52.728;9.230;2022-11-15T06:50:31;3.08;;;1.00;;
22088;SDS011;11211;52.728;9.230;2022-11-15T06:53:02;3.33;;;1.05;;
22088;SDS011;11211;52.728;9.230;2022-11-15T06:55:29;2.47;;;1.25;;
22088;SDS011;11211;52.728;9.230;2022-11-15T06:57:56;2.15;;;0.90;;
22088;SDS011;11211;52.728;9.230;2022-11-15T07:00:22;1.13;;;0.93;;
22088;SDS011;11211;52.728;9.230;2022-11-15T07:02:49;0.57;;;0.50;;
22088;SDS011;11211;52.728;9.230;2022-11-15T07:05:16;1.52;;;0.55;;
22088;SDS011;11211;52.728;9.230;2022-11-15T07:07:43;0.65;;;0.30;;
22088;SDS011;11211;52.728;9.230;2022-11-15T07:10:17;4.80;;;1.47;;
22088;SDS011;11211;52.728;9.230;2022-11-15T07:12:46;4.78;;;1.58;;
22088;SDS011;11211;52.728;9.230;2022-11-15T07:15:13;1.58;;;0.70;;
22088;SDS011;11211;52.728;9.230;2022-11-15T07:17:40;0.63;;;0.63;;
22088;SDS011;11211;52.728;9.230;2022-11-15T07:20:07;1.60;;;1.05;;
22088;SDS011;11211;52.728;9.230;2022-11-15T07:22:34;1.58;;;0.57;;
22088;SDS011;11211;52.728;9.230;2022-11-15T07:25:01;3.88;;;1.17;;
22088;SDS011;11211;52.728;9.230;2022-11-15T07:27:30;1.02;;;0.85;;
22088;SDS011;11211;52.728;9.230;2022-11-15T07:29:57;0.50;;;0.40;;
22088;SDS011;11211;52.728;9.230;2022-11-15T07:32:23;1.02;;;0.85;;
22088;SDS011;11211;52.728;9.230;2022-11-15T07:34:50;1.45;;;1.02;;
22088;SDS011;11211;52.728;9.230;2022-11-15T07:37:17;1.10;;;0.52;;
22088;SDS011;11211;52.728;9.230;2022-11-15T07:39:44;0.85;;;0.65;;
22088;SDS011;11211;52.728;9.230;2022-11-15T07:42:11;0.60;;;0.40;;
22088;SDS011;11211;52.728;9.230;2022-11-15T07:44:56;2.83;;;0.90;;
22088;SDS011;11211;52.728;9.230;2022-11-15T07:47:23;0.50;;;0.50;;
22088;SDS011;11211;52.728;9.230;2022-11-15T07:49:50;0.80;;;0.80;;
22088;SDS011;11211;52.728;9.230;2022-11-15T07:52:17;1.17;;;0.70;;
22088;SDS011;11211;52.728;9.230;2022-11-15T07:54:43;2.15;;;1.48;;
22088;SDS011;11211;52.728;9.230;2022-11-15T07:57:10;1.92;;;0.88;;
22088;SDS011;11211;52.728;9.230;2022-11-15T07:59:37;7.38;;;1.33;;
22088;SDS011;11211;52.728;9.230;2022-11-15T08:02:05;0.30;;;0.22;;
22088;SDS011;11211;52.728;9.230;2022-11-15T08:04:31;1.15;;;0.98;;
22088;SDS011;11211;52.728;9.230;2022-11-15T08:06:58;2.03;;;1.02;;
22088;SDS011;11211;52.728;9.230;2022-11-15T08:09:25;1.17;;;0.73;;
22088;SDS011;11211;52.728;9.230;2022-11-15T08:11:52;3.20;;;0.55;;
22088;SDS011;11211;52.728;9.230;2022-11-15T08:14:18;0.73;;;0.73;;
22088;SDS011;11211;52.728;9.230;2022-11-15T08:16:47;4.57;;;0.85;;
22088;SDS011;11211;52.728;9.230;2022-11-15T08:19:15;1.75;;;1.05;;
22088;SDS011;11211;52.728;9.230;2022-11-15T08:21:41;0.55;;;0.13;;
22088;SDS011;11211;52.728;9.230;2022-11-15T08:24:08;0.55;;;0.52;;
22088;SDS011;11211;52.728;9.230;2022-11-15T08:26:36;0.40;;;0.38;;
22088;SDS011;11211;52.728;9.230;2022-11-15T08:29:03;1.27;;;0.75;;
22088;SDS011;11211;52.728;9.230;2022-11-15T08:31:29;2.50;;;0.85;;
22088;SDS011;11211;52.728;9.230;2022-11-15T08:33:56;0.55;;;0.40;;
22088;SDS011;11211;52.728;9.230;2022-11-15T08:36:24;0.47;;;0.30;;
22088;SDS011;11211;52.728;9.230;2022-11-15T08:38:51;1.30;;;0.43;;
22088;SDS011;11211;52.728;9.230;2022-11-15T08:41:19;1.05;;;0.63;;
22088;SDS011;11211;52.728;9.230;2022-11-15T08:43:52;0.60;;;0.43;;
22088;SDS011;11211;52.728;9.230;2022-11-15T08:46:18;2.88;;;1.42;;
22088;SDS011;11211;52.728;9.230;2022-11-15T08:48:45;0.73;;;0.68;;
22088;SDS011;11211;52.728;9.230;2022-11-15T08:51:12;0.10;;;0.10;;
22088;SDS011;11211;52.728;9.230;2022-11-15T08:53:40;1.58;;;0.95;;
22088;SDS011;11211;52.728;9.230;2022-11-15T08:56:07;1.65;;;1.00;;
22088;SDS011;11211;52.728;9.230;2022-11-15T08:58:35;0.00;;;0.00;;
22088;SDS011;11211;52.728;9.230;2022-11-15T09:01:02;1.40;;;0.70;;
22088;SDS011;11211;52.728;9.230;2022-11-15T09:03:30;1.15;;;0.80;;
22088;SDS011;11211;52.728;9.230;2022-11-15T09:05:57;1.15;;;0.70;;
22088;SDS011;11211;52.728;9.230;2022-11-15T09:08:25;0.82;;;0.77;;
22088;SDS011;11211;52.728;9.230;2022-11-15T09:10:56;0.70;;;0.50;;
22088;SDS011;11211;52.728;9.230;2022-11-15T09:13:24;0.52;;;0.28;;
22088;SDS011;11211;52.728;9.230;2022-11-15T09:15:50;2.35;;;0.47;;
22088;SDS011;11211;52.728;9.230;2022-11-15T09:18:17;2.28;;;0.93;;
22088;SDS011;11211;52.728;9.230;2022-11-15T09:20:45;1.30;;;0.28;;
22088;SDS011;11211;52.728;9.230;2022-11-15T09:23:12;1.25;;;0.88;;
22088;SDS011;11211;52.728;9.230;2022-11-15T09:25:38;0.65;;;0.65;;
22088;SDS011;11211;52.728;9.230;2022-11-15T09:28:07;0.82;;;0.68;;
22088;SDS011;11211;52.728;9.230;2022-11-15T09:30:34;0.82;;;0.57;;
22088;SDS011;11211;52.728;9.230;2022-11-15T09:33:05;1.55;;;1.25;;
22088;SDS011;11211;52.728;9.230;2022-11-15T09:35:32;1.27;;;0.73;;
22088;SDS011;11211;52.728;9.230;2022-11-15T09:37:59;0.63;;;0.55;;
22088;SDS011;11211;52.728;9.230;2022-11-15T09:40:26;1.00;;;0.52;;
22088;SDS011;11211;52.728;9.230;2022-11-15T09:43:00;0.05;;;0.05;;
22088;SDS011;11211;52.728;9.230;2022-11-15T09:45:47;0.70;;;0.70;;
22088;SDS011;11211;52.728;9.230;2022-11-15T09:48:26;0.45;;;0.43;;
22088;SDS011;11211;52.728;9.230;2022-11-15T09:51:08;0.98;;;0.57;;
22088;SDS011;11211;52.728;9.230;2022-11-15T09:53:46;0.95;;;0.68;;
22088;SDS011;11211;52.728;9.230;2022-11-15T09:56:18;1.40;;;0.55;;
22088;SDS011;11211;52.728;9.230;2022-11-15T09:58:50;0.98;;;0.63;;
22088;SDS011;11211;52.728;9.230;2022-11-15T10:01:25;0.77;;;0.65;;
22088;SDS011;11211;52.728;9.230;2022-11-15T10:04:02;0.65;;;0.35;;
22088;SDS011;11211;52.728;9.230;2022-11-15T10:06:29;1.50;;;0.70;;
22088;SDS011;11211;52.728;9.230;2022-11-15T10:09:00;0.80;;;0.65;;
22088;SDS011;11211;52.728;9.230;2022-11-15T10:11:32;0.10;;;0.10;;
22088;SDS011;11211;52.728;9.230;2022-11-15T10:14:04;0.13;;;0.08;;
22088;SDS011;11211;52.728;9.230;2022-11-15T10:19:45;0.15;;;0.15;;
22088;SDS011;11211;52.728;9.230;2022-11-15T10:22:23;0.22;;;0.22;;
22088;SDS011;11211;52.728;9.230;2022-11-15T10:24:57;0.43;;;0.40;;
22088;SDS011;11211;52.728;9.230;2022-11-15T10:27:37;0.10;;;0.03;;
22088;SDS011;11211;52.728;9.230;2022-11-15T10:30:10;0.10;;;0.10;;
22088;SDS011;11211;52.728;9.230;2022-11-15T10:32:39;0.00;;;0.00;;
22088;SDS011;11211;52.728;9.230;2022-11-15T10:35:15;0.20;;;0.20;;
22088;SDS011;11211;52.728;9.230;2022-11-15T10:37:47;0.30;;;0.20;;
22088;SDS011;11211;52.728;9.230;2022-11-15T10:40:15;1.20;;;0.60;;
22088;SDS011;11211;52.728;9.230;2022-11-15T10:42:44;0.38;;;0.30;;
22088;SDS011;11211;52.728;9.230;2022-11-15T10:45:23;1.45;;;0.30;;
22088;SDS011;11211;52.728;9.230;2022-11-15T10:47:57;0.55;;;0.43;;
22088;SDS011;11211;52.728;9.230;2022-11-15T10:50:48;0.43;;;0.43;;
22088;SDS011;11211;52.728;9.230;2022-11-15T10:53:18;0.00;;;0.00;;
22088;SDS011;11211;52.728;9.230;2022-11-15T10:56:05;0.57;;;0.38;;
22088;SDS011;11211;52.728;9.230;2022-11-15T10:58:35;0.15;;;0.15;;
22088;SDS011;11211;52.728;9.230;2022-11-15T11:01:15;0.20;;;0.20;;
22088;SDS011;11211;52.728;9.230;2022-11-15T11:03:43;0.17;;;0.17;;
22088;SDS011;11211;52.728;9.230;2022-11-15T11:06:12;0.40;;;0.22;;
22088;SDS011;11211;52.728;9.230;2022-11-15T11:08:52;0.43;;;0.13;;
22088;SDS011;11211;52.728;9.230;2022-11-15T11:11:21;0.55;;;0.43;;
22088;SDS011;11211;52.728;9.230;2022-11-15T11:13:48;0.55;;;0.20;;
22088;SDS011;11211;52.728;9.230;2022-11-15T11:16:21;0.40;;;0.35;;
22088;SDS011;11211;52.728;9.230;2022-11-15T11:19:10;0.85;;;0.63;;
22088;SDS011;11211;52.728;9.230;2022-11-15T11:21:48;0.30;;;0.28;;
22088;SDS011;11211;52.728;9.230;2022-11-15T11:24:22;3.08;;;0.32;;
22088;SDS011;11211;52.728;9.230;2022-11-15T11:27:02;0.08;;;0.08;;
22088;SDS011;11211;52.728;9.230;2022-11-15T11:29:43;1.75;;;1.30;;
22088;SDS011;11211;52.728;9.230;2022-11-15T11:32:26;1.42;;;0.10;;
22088;SDS011;11211;52.728;9.230;2022-11-15T11:35:08;0.10;;;0.10;;
22088;SDS011;11211;52.728;9.230;2022-11-15T11:37:39;0.70;;;0.45;;
22088;SDS011;11211;52.728;9.230;2022-11-15T11:40:16;0.90;;;0.60;;
22088;SDS011;11211;52.728;9.230;2022-11-15T11:42:54;2.03;;;0.75;;
22088;SDS011;11211;52.728;9.230;2022-11-15T11:45:35;0.85;;;0.50;;
22088;SDS011;11211;52.728;9.230;2022-11-15T11:48:23;0.68;;;0.40;;
22088;SDS011;11211;52.728;9.230;2022-11-15T11:51:05;0.40;;;0.40;;
22088;SDS011;11211;52.728;9.230;2022-11-15T11:53:40;0.38;;;0.28;;
22088;SDS011;11211;52.728;9.230;2022-11-15T11:56:14;0.52;;;0.30;;
22088;SDS011;11211;52.728;9.230;2022-11-15T11:58:49;0.10;;;0.10;;
22088;SDS011;11211;52.728;9.230;2022-11-15T12:01:20;1.50;;;0.65;;
22088;SDS011;11211;52.728;9.230;2022-11-15T12:03:52;0.60;;;0.38;;
22088;SDS011;11211;52.728;9.230;2022-11-15T12:06:26;0.50;;;0.40;;
22088;SDS011;11211;52.728;9.230;2022-11-15T12:08:58;1.00;;;0.57;;
22088;SDS011;11211;52.728;9.230;2022-11-15T12:11:28;0.73;;;0.32;;
22088;SDS011;11211;52.728;9.230;2022-11-15T12:13:59;0.00;;;0.00;;
22088;SDS011;11211;52.728;9.230;2022-11-15T12:16:29;0.85;;;0.68;;
22088;SDS011;11211;52.728;9.230;2022-11-15T12:19:00;2.63;;;0.40;;
22088;SDS011;11211;52.728;9.230;2022-11-15T12:21:34;0.28;;;0.25;;
22088;SDS011;11211;52.728;9.230;2022-11-15T12:24:09;0.98;;;0.77;;
22088;SDS011;11211;52.728;9.230;2022-11-15T12:26:42;0.55;;;0.40;;
22088;SDS011;11211;52.728;9.230;2022-11-15T12:29:15;0.35;;;0.35;;
22088;SDS011;11211;52.728;9.230;2022-11-15T12:31:47;1.17;;;0.65;;
22088;SDS011;11211;52.728;9.230;2022-11-15T12:34:34;0.43;;;0.32;;
22088;SDS011;11211;52.728;9.230;2022-11-15T12:40:19;1.70;;;0.40;;
22088;SDS011;11211;52.728;9.230;2022-11-15T12:45:56;0.15;;;0.15;;
22088;SDS011;11211;52.728;9.230;2022-11-15T12:48:46;0.50;;;0.35;;
22088;SDS011;11211;52.728;9.230;2022-11-15T12:52:03;0.17;;;0.17;;
22088;SDS011;11211;52.728;9.230;2022-11-15T12:54:55;0.28;;;0.28;;
22088;SDS011;11211;52.728;9.230;2022-11-15T12:57:27;0.00;;;0.00;;
22088;SDS011;11211;52.728;9.230;2022-11-15T12:59:56;1.48;;;0.68;;
22088;SDS011;11211;52.728;9.230;2022-11-15T13:02:26;0.00;;;0.00;;
22088;SDS011;11211;52.728;9.230;2022-11-15T13:05:20;0.00;;;0.00;;
22088;SDS011;11211;52.728;9.230;2022-11-15T13:08:02;0.45;;;0.40;;
22088;SDS011;11211;52.728;9.230;2022-11-15T13:10:30;0.55;;;0.45;;
22088;SDS011;11211;52.728;9.230;2022-11-15T13:12:59;0.82;;;0.47;;
22088;SDS011;11211;52.728;9.230;2022-11-15T13:18:28;3.20;;;0.90;;
22088;SDS011;11211;52.728;9.230;2022-11-15T13:21:18;0.30;;;0.22;;
22088;SDS011;11211;52.728;9.230;2022-11-15T13:24:20;0.10;;;0.10;;
22088;SDS011;11211;52.728;9.230;2022-11-15T13:26:47;0.20;;;0.20;;
22088;SDS011;11211;52.728;9.230;2022-11-15T13:29:17;1.23;;;0.65;;
22088;SDS011;11211;52.728;9.230;2022-11-15T13:31:45;0.95;;;0.70;;
22088;SDS011;11211;52.728;9.230;2022-11-15T13:34:15;0.40;;;0.40;;
22088;SDS011;11211;52.728;9.230;2022-11-15T13:36:48;0.40;;;0.22;;
22088;SDS011;11211;52.728;9.230;2022-11-15T13:39:26;1.67;;;1.02;;
22088;SDS011;11211;52.728;9.230;2022-11-15T13:41:54;0.22;;;0.20;;
22088;SDS011;11211;52.728;9.230;2022-11-15T13:44:22;0.22;;;0.17;;
22088;SDS011;11211;52.728;9.230;2022-11-15T13:47:00;1.58;;;0.98;;
22088;SDS011;11211;52.728;9.230;2022-11-15T13:49:29;1.25;;;0.60;;
22088;SDS011;11211;52.728;9.230;2022-11-15T13:51:57;0.45;;;0.38;;
22088;SDS011;11211;52.728;9.230;2022-11-15T13:54:28;0.22;;;0.22;;
22088;SDS011;11211;52.728;9.230;2022-11-15T13:57:01;0.40;;;0.30;;
22088;SDS011;11211;52.728;9.230;2022-11-15T13:59:30;0.10;;;0.10;;
22088;SDS011;11211;52.728;9.230;2022-11-15T14:02:02;1.17;;;0.60;;
22088;SDS011;11211;52.728;9.230;2022-11-15T14:04:44;0.70;;;0.50;;
22088;SDS011;11211;52.728;9.230;2022-11-15T14:07:15;3.00;;;1.02;;
22088;SDS011;11211;52.728;9.230;2022-11-15T14:09:46;1.55;;;1.00;;
22088;SDS011;11211;52.728;9.230;2022-11-15T14:12:23;4.68;;;0.57;;
22088;SDS011;11211;52.728;9.230;2022-11-15T14:14:55;0.63;;;0.40;;
22088;SDS011;11211;52.728;9.230;2022-11-15T14:17:32;0.70;;;0.70;;
22088;SDS011;11211;52.728;9.230;2022-11-15T14:20:00;2.15;;;1.13;;
22088;SDS011;11211;52.728;9.230;2022-11-15T14:22:28;1.77;;;1.27;;
22088;SDS011;11211;52.728;9.230;2022-11-15T14:25:13;0.90;;;0.35;;
22088;SDS011;11211;52.728;9.230;2022-11-15T14:27:43;1.77;;;0.90;;
22088;SDS011;11211;52.728;9.230;2022-11-15T14:30:30;0.25;;;0.22;;
22088;SDS011;11211;52.728;9.230;2022-11-15T14:32:57;1.33;;;0.57;;
22088;SDS011;11211;52.728;9.230;2022-11-15T14:35:24;0.73;;;0.52;;
22088;SDS011;11211;52.728;9.230;2022-11-15T14:37:50;0.45;;;0.20;;
22088;SDS011;11211;52.728;9.230;2022-11-15T14:40:19;0.88;;;0.20;;
22088;SDS011;11211;52.728;9.230;2022-11-15T14:42:48;0.80;;;0.47;;
22088;SDS011;11211;52.728;9.230;2022-11-15T14:45:16;2.70;;;0.77;;
22088;SDS011;11211;52.728;9.230;2022-11-15T14:47:44;0.73;;;0.30;;
22088;SDS011;11211;52.728;9.230;2022-11-15T14:50:12;4.68;;;0.88;;
22088;SDS011;11211;52.728;9.230;2022-11-15T14:52:39;0.60;;;0.43;;
22088;SDS011;11211;52.728;9.230;2022-11-15T14:55:12;1.30;;;0.68;;
22088;SDS011;11211;52.728;9.230;2022-11-15T14:57:45;0.68;;;0.50;;
22088;SDS011;11211;52.728;9.230;2022-11-15T15:00:12;1.92;;;0.52;;
22088;SDS011;11211;52.728;9.230;2022-11-15T15:02:40;0.52;;;0.47;;
22088;SDS011;11211;52.728;9.230;2022-11-15T15:05:13;0.13;;;0.13;;
22088;SDS011;11211;52.728;9.230;2022-11-15T15:07:41;0.30;;;0.30;;
22088;SDS011;11211;52.728;9.230;2022-11-15T15:10:08;0.75;;;0.47;;
22088;SDS011;11211;52.728;9.230;2022-11-15T15:12:35;0.35;;;0.30;;
22088;SDS011;11211;52.728;9.230;2022-11-15T15:15:04;1.35;;;1.00;;
22088;SDS011;11211;52.728;9.230;2022-11-15T15:17:32;0.63;;;0.55;;
22088;SDS011;11211;52.728;9.230;2022-11-15T15:19:59;3.28;;;1.13;;
22088;SDS011;11211;52.728;9.230;2022-11-15T15:22:25;0.17;;;0.13;;
22088;SDS011;11211;52.728;9.230;2022-11-15T15:24:55;1.00;;;0.85;;
22088;SDS011;11211;52.728;9.230;2022-11-15T15:27:22;2.30;;;1.60;;
22088;SDS011;11211;52.728;9.230;2022-11-15T15:29:48;1.70;;;0.50;;